sensor_id;sensor_type;location;lat;lon;timestamp;pressure;altitude;pressure_sealevel;temperature;humidity
36354;BME280;22383;51.114;13.666;2023-03-19T00:00:48;67952.63;;;6.87;100.00
36354;BME280;22383;51.114;13.666;2023-03-19T00:03:16;67949.81;;;6.85;100.00
36354;BME280;22383;51.114;13.666;2023-03-19T00:05:51;67936.78;;;6.73;100.00
36354;BME280;22383;51.114;13.666;2023-03-19T00:08:20;67936.78;;;6.73;100.00
36354;BME280;22383;51.114;13.666;2023-03-19T00:10:48;67932.06;;;6.66;100.00
36354;BME280;22383;51.114;13.666;2023-03-19T00:13:15;67920.97;;;6.58;100.00
36354;BME280;22383;51.114;13.666;2023-03-19T00:15:43;67930.59;;;6.67;100.00
36354;BME280;22383;51.114;13.666;2023-03-19T00:18:10;67923.22;;;6.60;100.00
36354;BME280;22383;51.114;13.666;2023-03-19T00:20:38;67920.41;;;6.58;100.00
36354;BME280;22383;51.114;13.666;2023-03-19T00:23:06;67917.59;;;6.55;100.00
36354;BME280;22383;51.114;13.666;2023-03-19T00:25:33;67914.41;;;6.55;100.00
36354;BME280;22383;51.114;13.666;2023-03-19T00:28:01;67917.94;;;6.53;100.00
36354;BME280;22383;51.114;13.666;2023-03-19T00:30:30;67917.03;;;6.55;100.00
36354;BME280;22383;51.114;13.666;2023-03-19T00:32:57;67922.50;;;6.57;100.00
36354;BME280;22383;51.114;13.666;2023-03-19T00:35:25;67916.47;;;6.54;100.00
36354;BME280;22383;51.114;13.666;2023-03-19T00:37:53;67916.47;;;6.54;100.00
36354;BME280;22383;51.114;13.666;2023-03-19T00:40:21;67917.59;;;6.55;100.00
36354;BME280;22383;51.114;13.666;2023-03-19T00:42:49;67923.03;;;6.58;100.00
36354;BME280;22383;51.114;13.666;2023-03-19T00:45:24;67911.56;;;6.52;100.00
36354;BME280;22383;51.114;13.666;2023-03-19T00:47:52;67914.22;;;6.52;100.00
36354;BME280;22383;51.114;13.666;2023-03-19T00:50:20;67920.03;;;6.53;100.00
36354;BME280;22383;51.114;13.666;2023-03-19T00:52:48;67917.03;;;6.55;100.00
36354;BME280;22383;51.114;13.666;2023-03-19T00:55:17;67913.63;;;6.52;100.00
36354;BME280;22383;51.114;13.666;2023-03-19T00:57:44;67913.84;;;6.54;100.00
36354;BME280;22383;51.114;13.666;2023-03-19T01:00:12;67919.28;;;6.57;100.00
36354;BME280;22383;51.114;13.666;2023-03-19T01:02:40;67913.06;;;6.51;100.00
36354;BME280;22383;51.114;13.666;2023-03-19T01:05:08;67913.44;;;6.49;100.00
36354;BME280;22383;51.114;13.666;2023-03-19T01:07:35;67867.81;;;6.51;100.00
36354;BME280;22383;51.114;13.666;2023-03-19T01:10:03;67914.75;;;6.53;100.00
36354;BME280;22383;51.114;13.666;2023-03-19T01:12:31;67916.06;;;6.49;100.00
36354;BME280;22383;51.114;13.666;2023-03-19T01:14:58;67904.03;;;6.43;100.00
36354;BME280;22383;51.114;13.666;2023-03-19T01:17:26;67901.38;;;6.36;100.00
36354;BME280;22383;51.114;13.666;2023-03-19T01:19:53;67852.00;;;6.36;100.00
36354;BME280;22383;51.114;13.666;2023-03-19T01:22:21;67902.13;;;6.39;100.00
36354;BME280;22383;51.114;13.666;2023-03-19T01:24:54;67901.56;;;6.38;100.00
36354;BME280;22383;51.114;13.666;2023-03-19T01:27:22;67901.75;;;6.41;100.00
36354;BME280;22383;51.114;13.666;2023-03-19T01:29:50;67903.09;;;6.44;100.00
36354;BME280;22383;51.114;13.666;2023-03-19T01:32:30;67895.56;;;6.35;100.00
36354;BME280;22383;51.114;13.666;2023-03-19T01:35:17;67885.00;;;6.28;100.00
36354;BME280;22383;51.114;13.666;2023-03-19T01:37:45;67888.97;;;6.32;100.00
36354;BME280;22383;51.114;13.666;2023-03-19T01:40:14;67899.50;;;6.39;100.00
36354;BME280;22383;51.114;13.666;2023-03-19T01:42:57;67899.28;;;6.36;100.00
36354;BME280;22383;51.114;13.666;2023-03-19T01:45:56;67888.19;;;6.29;100.00
36354;BME280;22383;51.114;13.666;2023-03-19T01:48:47;67883.09;;;6.24;100.00
36354;BME280;22383;51.114;13.666;2023-03-19T01:51:22;67882.00;;;6.23;100.00
36354;BME280;22383;51.114;13.666;2023-03-19T01:54:13;67876.91;;;6.18;100.00
36354;BME280;22383;51.114;13.666;2023-03-19T01:57:15;67839.22;;;6.27;100.00
36354;BME280;22383;51.114;13.666;2023-03-19T02:00:09;67887.09;;;6.28;100.00
36354;BME280;22383;51.114;13.666;2023-03-19T02:02:46;67888.00;;;6.26;100.00
36354;BME280;22383;51.114;13.666;2023-03-19T02:05:25;67880.84;;;6.22;100.00
36354;BME280;22383;51.114;13.666;2023-03-19T02:08:01;67884.25;;;6.25;100.00
36354;BME280;22383;51.114;13.666;2023-03-19T02:10:29;67880.66;;;6.19;100.00
36354;BME280;22383;51.114;13.666;2023-03-19T02:12:57;67875.00;;;6.14;100.00
36354;BME280;22383;51.114;13.666;2023-03-19T02:15:25;67869.38;;;6.09;100.00
36354;BME280;22383;51.114;13.666;2023-03-19T02:17:53;67875.38;;;6.12;100.00
36354;BME280;22383;51.114;13.666;2023-03-19T02:20:29;67879.16;;;6.20;100.00
36354;BME280;22383;51.114;13.666;2023-03-19T02:28:31;67871.81;;;6.14;100.00
36354;BME280;22383;51.114;13.666;2023-03-19T02:30:59;67871.81;;;6.14;100.00
36354;BME280;22383;51.114;13.666;2023-03-19T02:33:29;67872.38;;;6.14;100.00
36354;BME280;22383;51.114;13.666;2023-03-19T02:35:57;67872.38;;;6.14;100.00
36354;BME280;22383;51.114;13.666;2023-03-19T02:38:26;67870.69;;;6.13;100.00
36354;BME280;22383;51.114;13.666;2023-03-19T02:41:00;67869.38;;;6.09;100.00
36354;BME280;22383;51.114;13.666;2023-03-19T02:43:30;67875.19;;;6.17;100.00
36354;BME280;22383;51.114;13.666;2023-03-19T02:45:59;67880.09;;;6.19;100.00
36354;BME280;22383;51.114;13.666;2023-03-19T02:48:27;67882.00;;;6.23;100.00
36354;BME280;22383;51.114;13.666;2023-03-19T02:50:55;67877.81;;;6.17;100.00
36354;BME280;22383;51.114;13.666;2023-03-19T02:53:22;67867.88;;;6.10;100.00
36354;BME280;22383;51.114;13.666;2023-03-19T02:55:51;67870.50;;;6.10;100.00
36354;BME280;22383;51.114;13.666;2023-03-19T02:58:19;67863.16;;;6.03;100.00
36354;BME280;22383;51.114;13.666;2023-03-19T03:00:46;67866.38;;;6.11;100.00
36354;BME280;22383;51.114;13.666;2023-03-19T03:03:14;67868.22;;;6.08;100.00
36354;BME280;22383;51.114;13.666;2023-03-19T03:05:42;67858.28;;;6.01;100.00
36354;BME280;22383;51.114;13.666;2023-03-19T03:08:09;67846.19;;;5.88;100.00
36354;BME280;22383;51.114;13.666;2023-03-19T03:10:37;67852.03;;;5.96;100.00
36354;BME280;22383;51.114;13.666;2023-03-19T03:13:05;67827.16;;;5.73;100.00
36354;BME280;22383;51.114;13.666;2023-03-19T03:15:33;67845.81;;;5.90;100.00
36354;BME280;22383;51.114;13.666;2023-03-19T03:18:01;67844.69;;;5.89;100.00
36354;BME280;22383;51.114;13.666;2023-03-19T03:20:29;67828.88;;;5.75;100.00
36354;BME280;22383;51.114;13.666;2023-03-19T03:22:56;67829.63;;;5.78;100.00
36354;BME280;22383;51.114;13.666;2023-03-19T03:25:24;67841.47;;;5.81;100.00
36354;BME280;22383;51.114;13.666;2023-03-19T03:27:52;67839.22;;;5.86;100.00
36354;BME280;22383;51.114;13.666;2023-03-19T03:30:21;67843.00;;;5.87;100.00
36354;BME280;22383;51.114;13.666;2023-03-19T03:32:49;67795.16;;;5.87;100.00
36354;BME280;22383;51.114;13.666;2023-03-19T03:35:17;67832.47;;;5.80;100.00
36354;BME280;22383;51.114;13.666;2023-03-19T03:37:50;67828.50;;;5.77;100.00
36354;BME280;22383;51.114;13.666;2023-03-19T03:40:18;67829.22;;;5.73;100.00
36354;BME280;22383;51.114;13.666;2023-03-19T03:42:46;67833.41;;;5.79;100.00
36354;BME280;22383;51.114;13.666;2023-03-19T03:45:14;67782.75;;;5.76;100.00
36354;BME280;22383;51.114;13.666;2023-03-19T03:47:44;67830.56;;;5.76;100.00
36354;BME280;22383;51.114;13.666;2023-03-19T03:50:12;67830.38;;;5.74;100.00
36354;BME280;22383;51.114;13.666;2023-03-19T03:52:40;67824.34;;;5.71;100.00
36354;BME280;22383;51.114;13.666;2023-03-19T03:55:08;67822.66;;;5.69;100.00
36354;BME280;22383;51.114;13.666;2023-03-19T03:57:36;67823.22;;;5.69;100.00
36354;BME280;22383;51.114;13.666;2023-03-19T04:00:04;67827.16;;;5.73;100.00
36354;BME280;22383;51.114;13.666;2023-03-19T04:02:39;67831.50;;;5.75;100.00
36354;BME280;22383;51.114;13.666;2023-03-19T04:05:10;67827.94;;;5.76;100.00
36354;BME280;22383;51.114;13.666;2023-03-19T04:07:38;67831.69;;;5.77;100.00
36354;BME280;22383;51.114;13.666;2023-03-19T04:10:06;67840.53;;;5.83;100.00
36354;BME280;22383;51.114;13.666;2023-03-19T04:12:34;67831.69;;;5.77;100.00
36354;BME280;22383;51.114;13.666;2023-03-19T04:15:05;67828.88;;;5.75;100.00
36354;BME280;22383;51.114;13.666;2023-03-19T04:17:36;67830.38;;;5.74;100.00
36354;BME280;22383;51.114;13.666;2023-03-19T04:20:06;67823.22;;;5.69;100.00
36354;BME280;22383;51.114;13.666;2023-03-19T04:22:34;67820.03;;;5.69;100.00
36354;BME280;22383;51.114;13.666;2023-03-19T04:25:03;67819.84;;;5.66;100.00
36354;BME280;22383;51.114;13.666;2023-03-19T04:27:32;67820.78;;;5.65;100.00
36354;BME280;22383;51.114;13.666;2023-03-19T04:30:01;67820.19;;;5.64;100.00
36354;BME280;22383;51.114;13.666;2023-03-19T04:32:29;67820.97;;;5.67;100.00
36354;BME280;22383;51.114;13.666;2023-03-19T04:34:57;67822.28;;;5.71;100.00
36354;BME280;22383;51.114;13.666;2023-03-19T04:37:24;67827.16;;;5.73;100.00
36354;BME280;22383;51.114;13.666;2023-03-19T04:39:53;67825.84;;;5.69;100.00
36354;BME280;22383;51.114;13.666;2023-03-19T04:42:21;67816.44;;;5.63;100.00
36354;BME280;22383;51.114;13.666;2023-03-19T04:45:03;67813.06;;;5.60;100.00
36354;BME280;22383;51.114;13.666;2023-03-19T04:47:31;67810.81;;;5.58;100.00
36354;BME280;22383;51.114;13.666;2023-03-19T04:50:01;67806.84;;;5.55;100.00
36354;BME280;22383;51.114;13.666;2023-03-19T04:52:32;67804.59;;;5.53;100.00
36354;BME280;22383;51.114;13.666;2023-03-19T04:55:03;67816.25;;;5.61;100.00
36354;BME280;22383;51.114;13.666;2023-03-19T04:57:42;67805.53;;;5.51;100.00
36354;BME280;22383;51.114;13.666;2023-03-19T05:00:10;67809.66;;;5.57;100.00
36354;BME280;22383;51.114;13.666;2023-03-19T05:02:42;67808.34;;;5.54;100.00
36354;BME280;22383;51.114;13.666;2023-03-19T05:05:10;67804.97;;;5.51;100.00
36354;BME280;22383;51.114;13.666;2023-03-19T05:07:46;67782.78;;;5.35;100.00
36354;BME280;22383;51.114;13.666;2023-03-19T05:10:15;67737.03;;;5.34;100.00
36354;BME280;22383;51.114;13.666;2023-03-19T05:12:44;67792.16;;;5.41;100.00
36354;BME280;22383;51.114;13.666;2023-03-19T05:15:14;67801.75;;;5.50;100.00
36354;BME280;22383;51.114;13.666;2023-03-19T05:17:51;67791.97;;;5.39;100.00
36354;BME280;22383;51.114;13.666;2023-03-19T05:20:27;67793.09;;;5.40;100.00
36354;BME280;22383;51.114;13.666;2023-03-19T05:23:02;67786.50;;;5.36;100.00
36354;BME280;22383;51.114;13.666;2023-03-19T05:25:52;67786.31;;;5.34;100.00
36354;BME280;22383;51.114;13.666;2023-03-19T05:28:38;67734.59;;;5.29;100.00
36354;BME280;22383;51.114;13.666;2023-03-19T05:31:06;67781.81;;;5.29;100.00
36354;BME280;22383;51.114;13.666;2023-03-19T05:33:40;67772.97;;;5.24;100.00
36354;BME280;22383;51.114;13.666;2023-03-19T05:36:08;67780.69;;;5.28;100.00
36354;BME280;22383;51.114;13.666;2023-03-19T05:38:51;67784.63;;;5.32;100.00
36354;BME280;22383;51.114;13.666;2023-03-19T05:41:25;67778.41;;;5.26;100.00
36354;BME280;22383;51.114;13.666;2023-03-19T05:44:01;67778.06;;;5.28;100.00
36354;BME280;22383;51.114;13.666;2023-03-19T05:46:57;67782.56;;;5.33;100.00
36354;BME280;22383;51.114;13.666;2023-03-19T05:49:29;67781.44;;;5.32;100.00
36354;BME280;22383;51.114;13.666;2023-03-19T05:51:56;67779.53;;;5.27;100.00
36354;BME280;22383;51.114;13.666;2023-03-19T05:54:24;67784.06;;;5.32;100.00
36354;BME280;22383;51.114;13.666;2023-03-19T05:57:09;67795.38;;;5.42;100.00
36354;BME280;22383;51.114;13.666;2023-03-19T05:59:43;67805.53;;;5.51;100.00
36354;BME280;22383;51.114;13.666;2023-03-19T06:02:40;67753.97;;;5.49;100.00
36354;BME280;22383;51.114;13.666;2023-03-19T06:05:20;67749.47;;;5.45;100.00
36354;BME280;22383;51.114;13.666;2023-03-19T06:07:50;67812.66;;;5.55;100.00
36354;BME280;22383;51.114;13.666;2023-03-19T06:10:25;67810.59;;;5.56;100.00
36354;BME280;22383;51.114;13.666;2023-03-19T06:12:55;67806.63;;;5.52;100.00
36354;BME280;22383;51.114;13.666;2023-03-19T06:15:35;67802.69;;;5.48;100.00
36354;BME280;22383;51.114;13.666;2023-03-19T06:18:12;67801.56;;;5.47;100.00
36354;BME280;22383;51.114;13.666;2023-03-19T06:20:39;67753.97;;;5.49;100.00
36354;BME280;22383;51.114;13.666;2023-03-19T06:23:08;67803.25;;;5.49;100.00
36354;BME280;22383;51.114;13.666;2023-03-19T06:25:36;67798.38;;;5.47;100.00
36354;BME280;22383;51.114;13.666;2023-03-19T06:28:04;67802.69;;;5.48;100.00
36354;BME280;22383;51.114;13.666;2023-03-19T06:30:38;67809.66;;;5.57;100.00
36354;BME280;22383;51.114;13.666;2023-03-19T06:33:25;67820.59;;;5.69;100.00
36354;BME280;22383;51.114;13.666;2023-03-19T06:35:58;67826.25;;;5.75;100.00
36354;BME280;22383;51.114;13.666;2023-03-19T06:38:27;67837.13;;;5.80;100.00
36354;BME280;22383;51.114;13.666;2023-03-19T06:40:55;67846.38;;;5.91;100.00
36354;BME280;22383;51.114;13.666;2023-03-19T06:43:23;67858.06;;;5.99;100.00
36354;BME280;22383;51.114;13.666;2023-03-19T06:45:50;67867.28;;;6.10;100.00
36354;BME280;22383;51.114;13.666;2023-03-19T06:48:18;67878.03;;;6.19;100.00
36354;BME280;22383;51.114;13.666;2023-03-19T06:50:46;67888.19;;;6.29;100.00
36354;BME280;22383;51.114;13.666;2023-03-19T06:53:13;67903.47;;;6.42;100.00
36354;BME280;22383;51.114;13.666;2023-03-19T06:55:41;67932.06;;;6.66;100.00
36354;BME280;22383;51.114;13.666;2023-03-19T06:58:08;67921.38;;;6.63;100.00
36354;BME280;22383;51.114;13.666;2023-03-19T07:00:36;67932.47;;;6.71;100.00
36354;BME280;22383;51.114;13.666;2023-03-19T07:03:04;67930.59;;;6.67;100.00
36354;BME280;22383;51.114;13.666;2023-03-19T07:05:31;67935.88;;;6.74;100.00
36354;BME280;22383;51.114;13.666;2023-03-19T07:07:59;67952.81;;;6.90;100.00
36354;BME280;22383;51.114;13.666;2023-03-19T07:10:27;67961.66;;;6.95;100.00
36354;BME280;22383;51.114;13.666;2023-03-19T07:12:54;67968.09;;;7.04;100.00
36354;BME280;22383;51.114;13.666;2023-03-19T07:15:22;67983.16;;;7.15;100.00
36354;BME280;22383;51.114;13.666;2023-03-19T07:17:49;67987.09;;;7.18;100.00
36354;BME280;22383;51.114;13.666;2023-03-19T07:20:17;67999.34;;;7.27;100.00
36354;BME280;22383;51.114;13.666;2023-03-19T07:22:45;68008.41;;;7.35;100.00
36354;BME280;22383;51.114;13.666;2023-03-19T07:25:12;68027.81;;;7.55;100.00
36354;BME280;22383;51.114;13.666;2023-03-19T07:27:39;68025.00;;;7.53;100.00
36354;BME280;22383;51.114;13.666;2023-03-19T07:30:08;68023.88;;;7.52;100.00
36354;BME280;22383;51.114;13.666;2023-03-19T07:32:36;68026.16;;;7.54;100.00
36354;BME280;22383;51.114;13.666;2023-03-19T07:35:04;68026.34;;;7.56;100.00
36354;BME280;22383;51.114;13.666;2023-03-19T07:37:32;68031.41;;;7.54;100.00
36354;BME280;22383;51.114;13.666;2023-03-19T07:39:59;68032.53;;;7.55;100.00
36354;BME280;22383;51.114;13.666;2023-03-19T07:42:27;68027.47;;;7.57;100.00
36354;BME280;22383;51.114;13.666;2023-03-19T07:44:55;68032.53;;;7.62;100.00
36354;BME280;22383;51.114;13.666;2023-03-19T07:47:23;68060.44;;;7.83;99.96
36354;BME280;22383;51.114;13.666;2023-03-19T07:49:56;68073.28;;;7.99;100.00
36354;BME280;22383;51.114;13.666;2023-03-19T07:52:24;68094.41;;;8.13;98.73
36354;BME280;22383;51.114;13.666;2023-03-19T07:54:52;68090.63;;;8.12;95.52
36354;BME280;22383;51.114;13.666;2023-03-19T07:57:20;68093.66;;;8.18;96.14
36354;BME280;22383;51.114;13.666;2023-03-19T07:59:47;68107.41;;;8.25;96.03
36354;BME280;22383;51.114;13.666;2023-03-19T08:02:15;68111.00;;;8.31;93.85
36354;BME280;22383;51.114;13.666;2023-03-19T08:04:43;68124.63;;;8.43;93.54
36354;BME280;22383;51.114;13.666;2023-03-19T08:07:10;68134.59;;;8.50;92.56
36354;BME280;22383;51.114;13.666;2023-03-19T08:09:39;68144.41;;;8.61;91.72
36354;BME280;22383;51.114;13.666;2023-03-19T08:12:07;68132.41;;;8.91;91.85
36354;BME280;22383;51.114;13.666;2023-03-19T08:14:35;68211.81;;;9.22;90.25
36354;BME280;22383;51.114;13.666;2023-03-19T08:17:02;68236.16;;;9.44;87.60
36354;BME280;22383;51.114;13.666;2023-03-19T08:19:30;68257.31;;;9.66;87.37
36354;BME280;22383;51.114;13.666;2023-03-19T08:21:57;68267.69;;;9.71;86.13
36354;BME280;22383;51.114;13.666;2023-03-19T08:24:25;68276.94;;;9.81;86.33
36354;BME280;22383;51.114;13.666;2023-03-19T08:26:52;68300.16;;;10.02;85.39
36354;BME280;22383;51.114;13.666;2023-03-19T08:29:20;68304.13;;;10.06;83.50
36354;BME280;22383;51.114;13.666;2023-03-19T08:31:48;68286.00;;;9.90;82.46
36354;BME280;22383;51.114;13.666;2023-03-19T08:34:17;68273.53;;;9.78;83.06
36354;BME280;22383;51.114;13.666;2023-03-19T08:36:46;68263.16;;;9.67;83.17
36354;BME280;22383;51.114;13.666;2023-03-19T08:39:14;68269.00;;;9.74;83.65
36354;BME280;22383;51.114;13.666;2023-03-19T08:41:41;68285.44;;;9.89;83.19
36354;BME280;22383;51.114;13.666;2023-03-19T08:44:09;68280.53;;;9.87;81.75
36354;BME280;22383;51.114;13.666;2023-03-19T08:46:36;68274.28;;;9.81;81.18
36354;BME280;22383;51.114;13.666;2023-03-19T08:49:04;68284.31;;;9.88;82.18
36354;BME280;22383;51.114;13.666;2023-03-19T08:51:31;68275.63;;;9.85;81.99
36354;BME280;22383;51.114;13.666;2023-03-19T08:53:59;68278.47;;;9.88;81.31
36354;BME280;22383;51.114;13.666;2023-03-19T08:56:26;68292.63;;;10.00;81.99
36354;BME280;22383;51.114;13.666;2023-03-19T08:58:55;68314.72;;;10.13;81.08
36354;BME280;22383;51.114;13.666;2023-03-19T09:01:23;68327.56;;;10.30;80.45
36354;BME280;22383;51.114;13.666;2023-03-19T09:03:50;68339.88;;;10.38;80.55
36354;BME280;22383;51.114;13.666;2023-03-19T09:06:18;68351.41;;;10.51;79.17
36354;BME280;22383;51.114;13.666;2023-03-19T09:08:45;68343.63;;;10.39;79.89
36354;BME280;22383;51.114;13.666;2023-03-19T09:11:13;68329.06;;;10.29;80.72
36354;BME280;22383;51.114;13.666;2023-03-19T09:13:43;68357.44;;;10.54;80.34
36354;BME280;22383;51.114;13.666;2023-03-19T09:16:10;68392.03;;;10.86;79.50
36354;BME280;22383;51.114;13.666;2023-03-19T09:18:38;68432.88;;;11.23;78.71
36354;BME280;22383;51.114;13.666;2023-03-19T09:21:05;68427.19;;;11.18;77.26
36354;BME280;22383;51.114;13.666;2023-03-19T09:23:33;68429.06;;;11.22;77.41
36354;BME280;22383;51.114;13.666;2023-03-19T09:26:00;68444.41;;;11.35;77.82
36354;BME280;22383;51.114;13.666;2023-03-19T09:28:28;68450.63;;;11.41;78.01
36354;BME280;22383;51.114;13.666;2023-03-19T09:30:55;68432.88;;;11.23;77.57
36354;BME280;22383;51.114;13.666;2023-03-19T09:33:23;68420.75;;;11.16;78.64
36354;BME280;22383;51.114;13.666;2023-03-19T09:35:52;68440.03;;;11.27;77.01
36354;BME280;22383;51.114;13.666;2023-03-19T09:38:20;68440.03;;;11.34;78.20
36354;BME280;22383;51.114;13.666;2023-03-19T09:49:13;68508.34;;;11.91;75.23
36354;BME280;22383;51.114;13.666;2023-03-19T09:51:49;68523.28;;;12.07;75.10
36354;BME280;22383;51.114;13.666;2023-03-19T09:54:27;68551.69;;;12.33;74.92
36354;BME280;22383;51.114;13.666;2023-03-19T09:56:55;68557.56;;;12.33;74.46
36354;BME280;22383;51.114;13.666;2023-03-19T09:59:25;68515.91;;;12.00;74.30
36354;BME280;22383;51.114;13.666;2023-03-19T10:04:45;68555.84;;;12.32;73.10
36354;BME280;22383;51.114;13.666;2023-03-19T10:15:49;68690.09;;;13.55;69.70
36354;BME280;22383;51.114;13.666;2023-03-19T10:18:26;68727.06;;;13.89;69.01
36354;BME280;22383;51.114;13.666;2023-03-19T10:21:02;68744.84;;;14.07;68.14
36354;BME280;22383;51.114;13.666;2023-03-19T10:23:32;68768.38;;;14.24;67.67
36354;BME280;22383;51.114;13.666;2023-03-19T10:26:05;68741.44;;;14.04;67.06
36354;BME280;22383;51.114;13.666;2023-03-19T10:28:37;68774.22;;;14.31;68.14
36354;BME280;22383;51.114;13.666;2023-03-19T10:31:25;68762.47;;;14.23;64.44
36354;BME280;22383;51.114;13.666;2023-03-19T10:34:30;68775.38;;;14.32;65.81
36354;BME280;22383;51.114;13.666;2023-03-19T10:37:19;68853.31;;;15.03;67.64
36354;BME280;22383;51.114;13.666;2023-03-19T10:39:49;68860.72;;;15.09;66.30
36354;BME280;22383;51.114;13.666;2023-03-19T10:47:56;68873.78;;;15.21;65.68
36354;BME280;22383;51.114;13.666;2023-03-19T10:50:34;68900.53;;;15.45;63.95
36354;BME280;22383;51.114;13.666;2023-03-19T10:53:24;68904.34;;;15.46;62.65
36354;BME280;22383;51.114;13.666;2023-03-19T10:55:56;68930.88;;;15.75;63.88
36354;BME280;22383;51.114;13.666;2023-03-19T10:58:28;68950.63;;;15.91;62.46
36354;BME280;22383;51.114;13.666;2023-03-19T11:01:03;68902.78;;;15.47;61.47
36354;BME280;22383;51.114;13.666;2023-03-19T11:03:36;68948.72;;;15.94;61.68
36354;BME280;22383;51.114;13.666;2023-03-19T11:06:14;68925.72;;;15.70;62.72
36354;BME280;22383;51.114;13.666;2023-03-19T11:09:15;68935.44;;;15.79;62.87
36354;BME280;22383;51.114;13.666;2023-03-19T11:11:46;68935.06;;;15.81;63.47
36354;BME280;22383;51.114;13.666;2023-03-19T11:14:18;68914.75;;;15.58;62.14
36354;BME280;22383;51.114;13.666;2023-03-19T11:17:04;68910.00;;;15.59;62.64
36354;BME280;22383;51.114;13.666;2023-03-19T11:19:39;68904.50;;;15.49;63.38
36354;BME280;22383;51.114;13.666;2023-03-19T11:22:34;68947.41;;;15.90;64.46
36354;BME280;22383;51.114;13.666;2023-03-19T11:27:41;68930.50;;;15.77;62.51
36354;BME280;22383;51.114;13.666;2023-03-19T11:30:17;68934.50;;;15.74;63.15
36354;BME280;22383;51.114;13.666;2023-03-19T11:36:00;68885.16;;;15.31;61.96
36354;BME280;22383;51.114;13.666;2023-03-19T11:38:56;68890.84;;;15.37;64.40
36354;BME280;22383;51.114;13.666;2023-03-19T11:44:06;68917.22;;;15.63;64.66
36354;BME280;22383;51.114;13.666;2023-03-19T11:46:47;68905.66;;;15.50;63.87
36354;BME280;22383;51.114;13.666;2023-03-19T11:52:22;68921.38;;;15.69;64.12
36354;BME280;22383;51.114;13.666;2023-03-19T11:55:20;68948.75;;;15.86;64.56
36354;BME280;22383;51.114;13.666;2023-03-19T12:00:47;68939.78;;;15.88;63.06
36354;BME280;22383;51.114;13.666;2023-03-19T12:14:16;68950.25;;;15.93;63.54
36354;BME280;22383;51.114;13.666;2023-03-19T12:28:09;68968.09;;;16.04;64.19
36354;BME280;22383;51.114;13.666;2023-03-19T12:30:52;68999.59;;;16.35;65.89
36354;BME280;22383;51.114;13.666;2023-03-19T12:36:20;68996.13;;;16.39;65.94
36354;BME280;22383;51.114;13.666;2023-03-19T12:38:53;68978.88;;;16.21;65.48
36354;BME280;22383;51.114;13.666;2023-03-19T12:41:26;68974.34;;;16.17;66.02
36354;BME280;22383;51.114;13.666;2023-03-19T12:46:47;68970.34;;;16.13;64.55
36354;BME280;22383;51.114;13.666;2023-03-19T12:52:01;68911.91;;;15.56;67.18
36354;BME280;22383;51.114;13.666;2023-03-19T12:54:41;68908.50;;;15.53;68.09
36354;BME280;22383;51.114;13.666;2023-03-19T12:57:31;68899.38;;;15.44;68.53
36354;BME280;22383;51.114;13.666;2023-03-19T13:00:11;68929.38;;;15.76;68.60
36354;BME280;22383;51.114;13.666;2023-03-19T13:05:29;68947.22;;;15.87;69.81
36354;BME280;22383;51.114;13.666;2023-03-19T13:10:58;68938.84;;;15.82;72.01
36354;BME280;22383;51.114;13.666;2023-03-19T13:16:51;68976.25;;;16.14;70.07
36354;BME280;22383;51.114;13.666;2023-03-19T13:19:01;68966.75;;;16.07;70.26
36354;BME280;22383;51.114;13.666;2023-03-19T13:21:35;68994.47;;;16.30;70.93
36354;BME280;22383;51.114;13.666;2023-03-19T13:26:52;68967.72;;;16.06;75.79
36354;BME280;22383;51.114;13.666;2023-03-19T13:29:25;68971.31;;;16.12;72.29
36354;BME280;22383;51.114;13.666;2023-03-19T13:32:00;68974.34;;;16.17;71.38
36354;BME280;22383;51.114;13.666;2023-03-19T13:34:31;68995.78;;;16.34;72.36
36354;BME280;22383;51.114;13.666;2023-03-19T13:39:33;69016.28;;;16.52;68.80
36354;BME280;22383;51.114;13.666;2023-03-19T13:44:38;69072.88;;;17.06;69.68
36354;BME280;22383;51.114;13.666;2023-03-19T13:55:18;68989.34;;;16.25;73.75
36354;BME280;22383;51.114;13.666;2023-03-19T13:57:53;68958.03;;;15.97;71.41
36354;BME280;22383;51.114;13.666;2023-03-19T14:00:54;68942.84;;;15.86;71.87
36354;BME280;22383;51.114;13.666;2023-03-19T14:03:34;68946.66;;;15.87;73.93
36354;BME280;22383;51.114;13.666;2023-03-19T14:06:03;68956.34;;;15.96;73.92
36354;BME280;22383;51.114;13.666;2023-03-19T14:08:45;68951.94;;;15.94;74.25
36354;BME280;22383;51.114;13.666;2023-03-19T14:11:22;68966.00;;;16.04;70.11
36354;BME280;22383;51.114;13.666;2023-03-19T14:13:51;68931.44;;;15.76;70.04
36354;BME280;22383;51.114;13.666;2023-03-19T14:16:34;68903.72;;;15.53;69.50
36354;BME280;22383;51.114;13.666;2023-03-19T14:19:10;68885.72;;;15.32;68.67
36354;BME280;22383;51.114;13.666;2023-03-19T14:21:45;68876.06;;;15.23;70.38
36354;BME280;22383;51.114;13.666;2023-03-19T14:27:43;68875.69;;;15.25;71.05
36354;BME280;22383;51.114;13.666;2023-03-19T14:32:44;68858.41;;;15.07;71.69
36354;BME280;22383;51.114;13.666;2023-03-19T14:35:16;68864.84;;;15.16;75.85
36354;BME280;22383;51.114;13.666;2023-03-19T14:37:49;68860.31;;;15.11;73.76
36354;BME280;22383;51.114;13.666;2023-03-19T14:40:41;68849.50;;;15.02;72.71
36354;BME280;22383;51.114;13.666;2023-03-19T14:46:03;68863.53;;;15.12;74.97
36354;BME280;22383;51.114;13.666;2023-03-19T14:51:57;68845.72;;;14.93;74.11
36354;BME280;22383;51.114;13.666;2023-03-19T14:54:39;68849.31;;;14.99;72.31
36354;BME280;22383;51.114;13.666;2023-03-19T14:57:32;68815.94;;;14.71;75.62
36354;BME280;22383;51.114;13.666;2023-03-19T15:00:03;68815.75;;;14.69;84.57
36354;BME280;22383;51.114;13.666;2023-03-19T15:02:39;68780.28;;;14.42;89.65
36354;BME280;22383;51.114;13.666;2023-03-19T15:05:23;68774.22;;;14.31;83.74
36354;BME280;22383;51.114;13.666;2023-03-19T15:07:54;68769.47;;;14.32;89.09